createdAt,value
2023-01-17T00:01:41.833Z,97815.72
2023-01-17T00:04:27.111Z,97809.28
2023-01-17T00:07:12.353Z,97806.28
2023-01-17T00:09:54.212Z,97797.88
2023-01-17T00:12:21.708Z,97796.75
2023-01-17T00:14:48.775Z,97793.31
2023-01-17T00:17:15.422Z,97789.84
2023-01-17T00:20:00.910Z,97787.28
2023-01-17T00:22:47.915Z,97786.03
2023-01-17T00:25:38.288Z,97783.25
2023-01-17T00:28:05.846Z,97787.13
2023-01-17T00:30:33.063Z,97780.16
2023-01-17T00:32:59.798Z,97779.00
2023-01-17T00:35:28.013Z,97780.34
2023-01-17T00:38:22.448Z,97779.66
2023-01-17T00:40:49.967Z,97780.31
2023-01-17T00:43:37.381Z,97780.31
2023-01-17T00:46:23.175Z,97779.28
2023-01-17T00:49:08.537Z,97780.69
2023-01-17T00:51:54.301Z,97775.03
2023-01-17T00:54:39.704Z,97782.75
2023-01-17T00:57:26.001Z,97776.59
2023-01-17T01:00:11.329Z,97780.41
2023-01-17T01:02:57.171Z,97774.81
2023-01-17T01:05:42.296Z,97770.59
2023-01-17T01:08:45.063Z,97774.03
2023-01-17T01:11:36.573Z,97775.06
2023-01-17T01:14:23.022Z,97772.09
2023-01-17T01:17:08.765Z,97768.91
2023-01-17T01:19:53.954Z,97756.31
2023-01-17T01:22:39.198Z,97764.50
2023-01-17T01:25:24.589Z,97754.50
2023-01-17T01:28:21.394Z,97757.03
2023-01-17T01:31:06.791Z,97754.53
2023-01-17T01:33:36.728Z,97767.81
2023-01-17T01:36:03.416Z,97758.66
2023-01-17T01:38:29.998Z,97758.84
2023-01-17T01:40:56.985Z,97756.28
2023-01-17T01:43:45.803Z,97752.91
2023-01-17T01:46:16.419Z,97746.03
2023-01-17T01:48:55.572Z,97749.25
2023-01-17T01:51:29.774Z,97748.28
2023-01-17T01:54:08.273Z,97742.25
2023-01-17T01:56:38.348Z,97741.53
2023-01-17T01:59:07.993Z,97742.28
2023-01-17T02:01:35.523Z,97742.38
2023-01-17T02:04:02.985Z,97741.50
2023-01-17T02:06:34.200Z,97732.31
2023-01-17T02:09:05.283Z,97740.38
2023-01-17T02:11:32.480Z,97734.88
2023-01-17T02:13:59.261Z,97734.38
2023-01-17T02:17:02.902Z,97732.38
2023-01-17T02:19:57.934Z,97728.75
2023-01-17T02:22:42.879Z,97731.31
2023-01-17T02:25:24.636Z,97729.88
2023-01-17T02:28:08.244Z,97732.59
2023-01-17T02:30:39.974Z,97731.94
2023-01-17T02:33:17.253Z,97725.66
2023-01-17T02:36:14.921Z,97726.56
2023-01-17T02:38:52.711Z,97728.84
2023-01-17T02:41:31.373Z,97718.78
2023-01-17T02:43:58.151Z,97724.75
2023-01-17T02:46:24.887Z,97724.63
2023-01-17T02:48:51.855Z,97720.69
2023-01-17T02:51:50.297Z,97730.59
2023-01-17T02:54:35.228Z,97729.66
2023-01-17T02:57:17.163Z,97729.81
2023-01-17T02:59:54.101Z,97735.88
2023-01-17T03:02:26.896Z,97729.28
2023-01-17T03:05:01.863Z,97732.66
2023-01-17T03:07:29.724Z,97734.75
2023-01-17T03:10:00.832Z,97736.44
2023-01-17T03:12:32.462Z,97733.97
2023-01-17T03:14:59.309Z,97733.09
2023-01-17T03:17:30.493Z,97736.63
2023-01-17T03:19:57.254Z,97730.28
2023-01-17T03:22:24.135Z,97732.84
2023-01-17T03:24:50.974Z,97729.06
2023-01-17T03:27:17.683Z,97726.00
2023-01-17T03:29:44.277Z,97733.09
2023-01-17T03:32:10.882Z,97729.88
2023-01-17T03:34:37.528Z,97726.25
2023-01-17T03:37:04.162Z,97732.53
2023-01-17T03:39:31.152Z,97732.81
2023-01-17T03:42:00.953Z,97743.47
2023-01-17T03:44:27.570Z,97743.03
2023-01-17T03:46:54.292Z,97743.41
2023-01-17T03:49:24.005Z,97736.13
2023-01-17T03:51:50.752Z,97745.09
2023-01-17T03:54:17.521Z,97743.97
2023-01-17T03:56:44.200Z,97743.78
2023-01-17T03:59:13.036Z,97744.63
2023-01-17T04:01:40.040Z,97745.97
2023-01-17T04:04:06.730Z,97746.81
2023-01-17T04:06:33.339Z,97759.41
2023-01-17T04:09:00.516Z,97751.03
2023-01-17T04:11:27.267Z,97750.94
2023-01-17T04:13:55.328Z,97751.44
2023-01-17T04:16:27.994Z,97751.22
2023-01-17T04:18:54.887Z,97758.44
2023-01-17T04:21:21.584Z,97762.00
2023-01-17T04:23:48.251Z,97758.13
2023-01-17T04:26:14.868Z,97770.00
2023-01-17T04:28:41.548Z,97766.88
2023-01-17T04:31:12.413Z,97764.88
2023-01-17T04:33:39.061Z,97771.78
2023-01-17T04:36:06.856Z,97779.63
2023-01-17T04:38:33.478Z,97783.00
2023-01-17T04:41:00.139Z,97779.16
2023-01-17T04:43:26.775Z,97775.56
2023-01-17T04:45:57.483Z,97786.22
2023-01-17T04:48:24.628Z,97778.19
2023-01-17T04:50:51.358Z,97786.13
2023-01-17T04:53:18.088Z,97785.00
2023-01-17T04:55:47.874Z,97789.25
2023-01-17T04:58:14.518Z,97794.56
2023-01-17T05:00:41.199Z,97798.47
2023-01-17T05:03:07.988Z,97805.41
2023-01-17T05:05:34.792Z,97817.13
2023-01-17T05:08:01.544Z,97818.34
2023-01-17T05:10:28.266Z,97821.19
2023-01-17T05:12:59.420Z,97816.72
2023-01-17T05:15:27.154Z,97818.72
2023-01-17T05:17:54.341Z,97821.09
2023-01-17T05:20:22.313Z,97821.44
2023-01-17T05:22:56.327Z,97822.88
2023-01-17T05:25:24.913Z,97829.47
2023-01-17T05:27:52.063Z,97839.31
2023-01-17T05:30:19.377Z,97845.81
2023-01-17T05:32:49.725Z,97853.88
2023-01-17T05:35:20.468Z,97852.72
2023-01-17T05:37:49.394Z,97856.13
2023-01-17T05:40:16.859Z,97852.63
2023-01-17T05:42:51.041Z,97855.00
2023-01-17T05:45:18.723Z,97851.09
2023-01-17T05:47:50.589Z,97861.97
2023-01-17T05:50:19.652Z,97872.66
2023-01-17T05:52:54.022Z,97873.03
2023-01-17T05:55:21.487Z,97884.19
2023-01-17T05:57:48.312Z,97891.28
2023-01-17T06:00:18.551Z,97900.50
2023-01-17T06:02:45.655Z,97904.59
2023-01-17T06:05:12.786Z,97910.34
2023-01-17T06:07:39.549Z,97902.41
2023-01-17T06:10:06.752Z,97913.19
2023-01-17T06:12:33.438Z,97920.72
2023-01-17T06:15:00.126Z,97923.47
2023-01-17T06:17:26.921Z,97922.50
2023-01-17T06:19:53.708Z,97923.28
2023-01-17T06:22:20.575Z,97924.78
2023-01-17T06:24:47.326Z,97920.81
2023-01-17T06:27:13.982Z,97921.50
2023-01-17T06:29:40.769Z,97918.19
2023-01-17T06:32:07.440Z,97923.75
2023-01-17T06:34:34.045Z,97919.03
2023-01-17T06:37:00.709Z,97925.28
2023-01-17T06:39:30.474Z,97924.78
2023-01-17T06:41:57.226Z,97929.97
2023-01-17T06:44:23.870Z,97937.84
2023-01-17T06:46:50.521Z,97939.34
2023-01-17T06:49:17.189Z,97946.75
2023-01-17T06:51:44.019Z,97949.84
2023-01-17T06:54:11.276Z,97964.34
2023-01-17T06:56:38.033Z,97963.69
2023-01-17T06:59:05.381Z,97953.69
2023-01-17T07:01:32.333Z,97965.13
2023-01-17T07:03:59.187Z,97970.94
2023-01-17T07:06:28.860Z,97969.31
2023-01-17T07:08:56.599Z,97977.47
2023-01-17T07:11:23.884Z,97980.97
2023-01-17T07:13:50.640Z,97979.81
2023-01-17T07:16:17.402Z,97981.53
2023-01-17T07:18:44.289Z,97984.22
2023-01-17T07:21:15.311Z,97979.38
2023-01-17T07:23:42.023Z,97990.88
2023-01-17T07:26:08.753Z,97992.16
2023-01-17T07:28:35.467Z,98001.41
2023-01-17T07:31:07.139Z,97993.13
2023-01-17T07:33:33.999Z,98011.69
2023-01-17T07:36:06.353Z,98007.91
2023-01-17T07:38:33.283Z,98005.94
2023-01-17T07:41:00.560Z,98008.66
2023-01-17T07:43:27.395Z,98012.13
2023-01-17T07:45:53.997Z,98014.91
2023-01-17T07:48:23.757Z,98008.13
2023-01-17T07:50:58.116Z,98019.63
2023-01-17T07:53:30.275Z,98015.38
2023-01-17T07:56:01.678Z,98021.75
2023-01-17T07:58:28.634Z,98017.59
2023-01-17T08:00:55.596Z,98020.34
2023-01-17T08:03:22.348Z,98019.28
2023-01-17T08:05:56.305Z,98019.53
2023-01-17T08:08:23.160Z,98019.81
2023-01-17T08:10:51.645Z,98017.81
2023-01-17T08:13:18.378Z,98024.72
2023-01-17T08:15:48.373Z,98030.41
2023-01-17T08:18:15.430Z,98026.44
2023-01-17T08:20:44.400Z,98036.00
2023-01-17T08:23:11.718Z,98031.66
2023-01-17T08:25:39.379Z,98034.59
2023-01-17T08:28:06.449Z,98035.66
2023-01-17T08:30:33.324Z,98038.09
2023-01-17T08:33:00.599Z,98043.13
2023-01-17T08:35:28.072Z,98046.78
2023-01-17T08:37:55.785Z,98048.19
2023-01-17T08:40:22.971Z,98047.09
2023-01-17T08:42:57.019Z,98053.03
2023-01-17T08:45:23.993Z,98054.56
2023-01-17T08:47:50.932Z,98053.59
2023-01-17T08:50:20.955Z,98068.34
2023-01-17T08:52:51.004Z,98073.25
2023-01-17T08:55:18.283Z,98070.47
2023-01-17T08:57:45.107Z,98074.66
2023-01-17T09:00:12.206Z,98074.91
2023-01-17T09:02:38.957Z,98075.66
2023-01-17T09:05:07.414Z,98086.50
2023-01-17T09:07:34.090Z,98095.03
2023-01-17T09:10:00.919Z,98094.56
2023-01-17T09:12:32.382Z,98095.94
2023-01-17T09:15:03.310Z,98093.19
2023-01-17T09:17:30.085Z,98095.03
2023-01-17T09:19:56.885Z,98099.19
2023-01-17T09:22:23.983Z,98113.97
2023-01-17T09:24:50.598Z,98118.13
2023-01-17T09:27:17.365Z,98121.50
2023-01-17T09:29:44.018Z,98134.84
2023-01-17T09:32:11.364Z,98133.63
2023-01-17T09:34:38.076Z,98143.72
2023-01-17T09:37:04.970Z,98140.03
2023-01-17T09:39:31.570Z,98145.41
2023-01-17T09:42:12.681Z,98153.78
2023-01-17T09:44:43.189Z,98156.66
2023-01-17T09:47:20.372Z,98153.78
2023-01-17T09:49:50.373Z,98146.44
2023-01-17T09:52:19.123Z,98164.75
2023-01-17T09:54:48.444Z,98167.25
2023-01-17T09:57:38.490Z,98181.44
2023-01-17T10:00:31.369Z,98176.72
2023-01-17T10:03:29.057Z,98181.06
2023-01-17T10:06:03.947Z,98188.34
2023-01-17T10:09:03.879Z,98192.22
2023-01-17T10:11:54.597Z,98205.69
2023-01-17T10:15:03.236Z,98206.94
2023-01-17T10:17:44.655Z,98213.75
2023-01-17T10:20:40.028Z,98223.09
2023-01-17T10:23:22.215Z,98229.44
2023-01-17T10:25:50.062Z,98238.28
2023-01-17T10:28:23.971Z,98235.06
2023-01-17T10:30:52.745Z,98234.53
2023-01-17T10:33:22.120Z,98238.88
2023-01-17T10:35:57.124Z,98238.78
2023-01-17T10:38:31.391Z,98242.53
2023-01-17T10:41:02.917Z,98244.69
2023-01-17T10:43:39.510Z,98257.22
2023-01-17T10:46:11.385Z,98253.81
2023-01-17T10:48:46.442Z,98266.31
2023-01-17T10:51:29.189Z,98260.72
2023-01-17T10:54:02.058Z,98275.03
2023-01-17T10:56:30.015Z,98264.97
2023-01-17T10:59:26.481Z,98274.59
2023-01-17T11:01:53.399Z,98269.75
2023-01-17T11:04:22.753Z,98271.06
2023-01-17T11:07:12.525Z,98282.81
2023-01-17T11:09:45.460Z,98277.69
2023-01-17T11:12:35.070Z,98284.19
2023-01-17T11:15:10.895Z,98299.66
2023-01-17T11:17:53.303Z,98297.81
2023-01-17T11:20:38.747Z,98304.28
2023-01-17T11:23:17.198Z,98308.38
2023-01-17T11:26:04.878Z,98306.44
2023-01-17T11:28:36.177Z,98314.69
2023-01-17T11:31:08.107Z,98312.13
2023-01-17T11:33:55.884Z,98312.44
2023-01-17T11:36:28.295Z,98310.63
2023-01-17T11:39:02.969Z,98313.41
2023-01-17T11:41:38.236Z,98315.75
2023-01-17T11:44:26.921Z,98327.72
2023-01-17T11:47:23.173Z,98327.66
2023-01-17T11:49:50.195Z,98326.88
2023-01-17T11:52:34.454Z,98335.56
2023-01-17T11:55:01.244Z,98329.31
2023-01-17T11:57:30.170Z,98323.34
2023-01-17T12:00:14.702Z,98320.38
2023-01-17T12:02:50.795Z,98313.03
2023-01-17T12:05:55.135Z,98311.50
2023-01-17T12:09:10.013Z,98315.19
2023-01-17T12:12:08.016Z,98314.81
2023-01-17T12:14:53.623Z,98310.72
2023-01-17T12:17:52.633Z,98316.94
2023-01-17T12:20:30.463Z,98321.59
2023-01-17T12:23:33.727Z,98332.38
2023-01-17T12:26:27.694Z,98332.59
2023-01-17T12:29:20.023Z,98326.19
2023-01-17T12:32:05.458Z,98334.22
2023-01-17T12:34:38.909Z,98337.13
2023-01-17T12:37:21.098Z,98337.00
2023-01-17T12:40:13.224Z,98349.25
2023-01-17T12:42:44.707Z,98350.69
2023-01-17T12:45:21.589Z,98351.28
2023-01-17T12:47:54.676Z,98351.97
2023-01-17T12:50:41.304Z,98362.56
2023-01-17T12:53:28.131Z,98358.63
2023-01-17T12:56:09.816Z,98364.00
2023-01-17T12:58:41.925Z,98368.16
2023-01-17T13:01:22.192Z,98361.75
2023-01-17T13:04:17.975Z,98360.41
2023-01-17T13:06:44.612Z,98364.75
2023-01-17T13:09:14.220Z,98374.81
2023-01-17T13:11:46.684Z,98369.69
2023-01-17T13:14:13.349Z,98374.91
2023-01-17T13:17:13.748Z,98379.44
2023-01-17T13:19:48.892Z,98383.88
2023-01-17T13:22:18.643Z,98385.59
2023-01-17T13:25:13.105Z,98388.81
2023-01-17T13:27:57.007Z,98378.44
2023-01-17T13:30:51.725Z,98406.44
2023-01-17T13:33:36.705Z,98395.75
2023-01-17T13:36:44.356Z,98398.81
2023-01-17T13:39:41.977Z,98408.59
2023-01-17T13:42:13.939Z,98417.28
2023-01-17T13:44:40.739Z,98414.19
2023-01-17T13:47:27.782Z,98425.75
2023-01-17T13:49:56.791Z,98432.16
2023-01-17T13:52:26.492Z,98427.00
2023-01-17T13:55:01.294Z,98435.06
2023-01-17T13:57:32.931Z,98430.44
2023-01-17T14:00:21.724Z,98436.69
2023-01-17T14:02:52.922Z,98437.16
2023-01-17T14:05:30.311Z,98445.78
2023-01-17T14:08:03.037Z,98445.63
2023-01-17T14:10:40.998Z,98443.31
2023-01-17T14:13:39.356Z,98459.75
2023-01-17T14:16:24.410Z,98464.97
2023-01-17T14:18:52.702Z,98469.09
2023-01-17T14:21:22.786Z,98478.72
2023-01-17T14:24:06.146Z,98486.25
2023-01-17T14:26:37.068Z,98481.56
2023-01-17T14:29:41.502Z,98487.63
2023-01-17T14:32:17.705Z,98498.09
2023-01-17T14:34:49.745Z,98491.03
2023-01-17T14:37:20.569Z,98502.41
2023-01-17T14:39:49.411Z,98499.47
2023-01-17T14:42:18.930Z,98512.22
2023-01-17T14:44:47.474Z,98507.78
2023-01-17T14:47:15.088Z,98513.97
2023-01-17T14:49:44.322Z,98513.72
2023-01-17T14:52:16.389Z,98513.22
2023-01-17T14:54:49.170Z,98511.59
2023-01-17T14:57:28.717Z,98515.25
2023-01-17T15:00:35.131Z,98520.63
2023-01-17T15:03:02.606Z,98516.28
2023-01-17T15:05:30.355Z,98514.63
2023-01-17T15:07:58.335Z,98513.00
2023-01-17T15:10:32.705Z,98516.44
2023-01-17T15:13:06.872Z,98523.09
2023-01-17T15:15:38.531Z,98526.75
2023-01-17T15:18:14.348Z,98533.59
2023-01-17T15:20:50.955Z,98535.78
2023-01-17T15:23:20.617Z,98536.84
2023-01-17T15:25:48.916Z,98533.19
2023-01-17T15:28:15.731Z,98541.84
2023-01-17T15:31:01.345Z,98548.81
2023-01-17T15:33:30.969Z,98552.94
2023-01-17T15:36:02.180Z,98551.38
2023-01-17T15:38:38.266Z,98551.91
2023-01-17T15:41:09.544Z,98553.69
2023-01-17T15:43:36.544Z,98561.22
2023-01-17T15:46:05.056Z,98554.13
2023-01-17T15:48:43.432Z,98563.53
2023-01-17T15:51:12.580Z,98571.06
2023-01-17T15:53:41.636Z,98566.63
2023-01-17T15:56:31.950Z,98566.19
2023-01-17T15:59:21.876Z,98566.72
2023-01-17T16:01:56.082Z,98572.50
2023-01-17T16:04:34.083Z,98572.22
2023-01-17T16:07:22.117Z,98570.50
2023-01-17T16:09:49.241Z,98572.97
2023-01-17T16:12:17.102Z,98582.09
2023-01-17T16:14:59.519Z,98588.19
2023-01-17T16:17:31.880Z,98589.47
2023-01-17T16:19:59.072Z,98587.22
2023-01-17T16:22:27.055Z,98575.94
2023-01-17T16:24:56.758Z,98586.81
2023-01-17T16:27:23.579Z,98582.59
2023-01-17T16:29:50.191Z,98583.59
2023-01-17T16:32:16.907Z,98584.66
2023-01-17T16:34:44.467Z,98585.78
2023-01-17T16:37:11.424Z,98588.81
2023-01-17T16:39:38.655Z,98589.13
2023-01-17T16:42:05.377Z,98594.63
2023-01-17T16:44:33.618Z,98588.69
2023-01-17T16:47:01.385Z,98591.66
2023-01-17T16:49:29.377Z,98596.03
2023-01-17T16:51:56.021Z,98587.81
2023-01-17T16:54:23.124Z,98590.75
2023-01-17T16:56:49.990Z,98601.50
2023-01-17T16:59:17.127Z,98606.31
2023-01-17T17:01:45.632Z,98602.84
2023-01-17T17:04:13.217Z,98602.94
2023-01-17T17:06:40.029Z,98608.34
2023-01-17T17:09:06.866Z,98599.66
2023-01-17T17:11:33.730Z,98609.56
2023-01-17T17:14:00.507Z,98607.97
2023-01-17T17:16:30.120Z,98618.94
2023-01-17T17:18:59.672Z,98614.75
2023-01-17T17:21:28.881Z,98624.97
2023-01-17T17:23:58.213Z,98623.75
2023-01-17T17:26:29.095Z,98630.56
2023-01-17T17:28:55.992Z,98638.41
2023-01-17T17:31:22.921Z,98636.81
2023-01-17T17:33:49.902Z,98650.16
2023-01-17T17:36:18.296Z,98643.34
2023-01-17T17:38:50.985Z,98633.72
2023-01-17T17:41:20.199Z,98642.78
2023-01-17T17:43:47.115Z,98641.03
2023-01-17T17:46:14.461Z,98639.44
2023-01-17T17:48:41.254Z,98643.09
2023-01-17T17:51:08.034Z,98647.63
2023-01-17T17:53:35.755Z,98650.28
2023-01-17T17:56:04.524Z,98657.47
2023-01-17T17:58:33.022Z,98657.63
2023-01-17T18:01:04.749Z,98653.94
2023-01-17T18:03:31.554Z,98655.78
2023-01-17T18:06:06.966Z,98651.50
2023-01-17T18:08:34.800Z,98657.75
2023-01-17T18:11:03.472Z,98655.47
2023-01-17T18:13:31.255Z,98657.16
2023-01-17T18:16:07.856Z,98659.00
2023-01-17T18:18:40.066Z,98661.09
2023-01-17T18:21:15.573Z,98660.91
2023-01-17T18:23:45.195Z,98666.38
2023-01-17T18:26:35.322Z,98663.81
2023-01-17T18:29:05.752Z,98662.16
2023-01-17T18:31:32.852Z,98667.50
2023-01-17T18:34:03.295Z,98671.06
2023-01-17T18:36:30.140Z,98674.59
2023-01-17T18:38:58.034Z,98668.47
2023-01-17T18:41:27.081Z,98674.75
2023-01-17T18:43:56.152Z,98675.88
2023-01-17T18:46:23.455Z,98679.47
2023-01-17T18:48:55.782Z,98674.25
2023-01-17T18:51:22.483Z,98671.78
2023-01-17T18:53:49.358Z,98677.00
2023-01-17T18:56:18.666Z,98683.44
2023-01-17T18:58:47.278Z,98689.44
2023-01-17T19:01:23.107Z,98689.53
2023-01-17T19:03:51.383Z,98691.50
2023-01-17T19:06:21.077Z,98681.84
2023-01-17T19:08:49.508Z,98680.19
2023-01-17T19:11:16.150Z,98682.75
2023-01-17T19:13:42.868Z,98688.81
2023-01-17T19:16:20.043Z,98686.44
2023-01-17T19:18:47.597Z,98688.22
2023-01-17T19:21:16.436Z,98687.66
2023-01-17T19:23:43.761Z,98693.97
2023-01-17T19:26:11.796Z,98696.59
2023-01-17T19:28:40.583Z,98688.75
2023-01-17T19:31:09.323Z,98697.41
2023-01-17T19:33:40.747Z,98706.44
2023-01-17T19:36:09.963Z,98706.34
2023-01-17T19:38:37.402Z,98702.84
2023-01-17T19:41:13.377Z,98709.97
2023-01-17T19:43:42.109Z,98702.94
2023-01-17T19:46:11.558Z,98716.34
2023-01-17T19:48:39.246Z,98718.78
2023-01-17T19:51:14.056Z,98717.09
2023-01-17T19:53:41.600Z,98716.19
2023-01-17T19:56:10.857Z,98709.31
2023-01-17T19:58:38.102Z,98712.94
2023-01-17T20:01:06.701Z,98718.25
2023-01-17T20:03:33.467Z,98717.44
2023-01-17T20:06:00.161Z,98710.16
2023-01-17T20:08:26.839Z,98716.19
2023-01-17T20:10:53.598Z,98726.53
2023-01-17T20:13:20.801Z,98708.16
2023-01-17T20:15:47.899Z,98712.81
2023-01-17T20:18:17.885Z,98724.72
2023-01-17T20:20:56.568Z,98724.72
2023-01-17T20:23:23.861Z,98724.75
2023-01-17T20:25:59.217Z,98723.13
2023-01-17T20:28:27.330Z,98720.50
2023-01-17T20:30:55.323Z,98714.41
2023-01-17T20:33:23.391Z,98724.09
2023-01-17T20:36:04.893Z,98714.44
2023-01-17T20:38:45.249Z,98720.66
2023-01-17T20:41:31.659Z,98726.09
2023-01-17T20:44:00.119Z,98729.72
2023-01-17T20:46:29.596Z,98735.81
2023-01-17T20:48:58.132Z,98743.66
2023-01-17T20:51:27.135Z,98741.75
2023-01-17T20:53:59.821Z,98744.44
2023-01-17T20:56:27.197Z,98749.09
2023-01-17T20:58:54.741Z,98754.16
2023-01-17T21:01:23.344Z,98761.25
2023-01-17T21:03:53.280Z,98777.16
2023-01-17T21:06:21.713Z,98780.03
2023-01-17T21:08:48.857Z,98780.16
2023-01-17T21:11:19.059Z,98790.53
2023-01-17T21:13:45.847Z,98801.84
2023-01-17T21:16:14.380Z,98802.69
2023-01-17T21:18:41.522Z,98808.84
2023-01-17T21:21:14.127Z,98816.81
2023-01-17T21:23:41.978Z,98814.25
2023-01-17T21:26:12.216Z,98816.09
2023-01-17T21:28:41.077Z,98819.72
2023-01-17T21:31:26.341Z,98821.38
2023-01-17T21:34:04.094Z,98840.84
2023-01-17T21:36:35.445Z,98842.50
2023-01-17T21:39:04.926Z,98840.13
2023-01-17T21:41:36.591Z,98846.28
2023-01-17T21:44:10.885Z,98847.97
2023-01-17T21:46:39.155Z,98849.75
2023-01-17T21:49:07.115Z,98859.22
2023-01-17T21:51:52.691Z,98851.75
2023-01-17T21:54:44.258Z,98852.25
2023-01-17T21:57:31.363Z,98842.84
2023-01-17T21:59:59.087Z,98861.97
2023-01-17T22:02:26.235Z,98849.16
2023-01-17T22:04:54.743Z,98859.28
2023-01-17T22:07:21.551Z,98852.47
2023-01-17T22:09:48.359Z,98867.97
2023-01-17T22:12:15.164Z,98869.66
2023-01-17T22:14:41.937Z,98867.19
2023-01-17T22:17:08.912Z,98847.34
2023-01-17T22:19:35.578Z,98843.19
2023-01-17T22:22:02.677Z,98868.91
2023-01-17T22:24:29.520Z,98867.19
2023-01-17T22:26:56.283Z,98868.94
2023-01-17T22:29:23.025Z,98861.41
2023-01-17T22:31:49.670Z,98869.28
2023-01-17T22:34:16.435Z,98866.69
2023-01-17T22:36:43.162Z,98866.63
2023-01-17T22:39:10.330Z,98856.84
2023-01-17T22:41:38.168Z,98873.41
2023-01-17T22:44:08.618Z,98852.59
2023-01-17T22:46:39.369Z,98857.97
2023-01-17T22:49:08.425Z,98856.06
2023-01-17T22:51:35.562Z,98849.97
2023-01-17T22:54:02.557Z,98841.28
2023-01-17T22:56:32.257Z,98844.88
2023-01-17T22:59:00.893Z,98849.16
2023-01-17T23:01:29.785Z,98847.50
2023-01-17T23:03:59.146Z,98834.50
2023-01-17T23:06:37.353Z,98830.31
2023-01-17T23:09:10.622Z,98828.59
2023-01-17T23:11:45.091Z,98842.28
2023-01-17T23:14:17.538Z,98843.41
2023-01-17T23:17:06.510Z,98826.22
2023-01-17T23:19:43.746Z,98828.63
2023-01-17T23:22:16.890Z,98832.56
2023-01-17T23:24:52.063Z,98836.75
2023-01-17T23:27:52.823Z,98830.53
2023-01-17T23:30:30.314Z,98830.69
2023-01-17T23:33:00.905Z,98823.72
2023-01-17T23:35:29.779Z,98823.69
2023-01-17T23:38:15.621Z,98815.00
2023-01-17T23:40:42.634Z,98815.03
2023-01-17T23:43:25.532Z,98813.28
2023-01-17T23:45:53.345Z,98805.38
2023-01-17T23:48:21.294Z,98799.22
2023-01-17T23:50:48.678Z,98805.38
2023-01-17T23:53:23.282Z,98799.31
2023-01-17T23:55:51.856Z,98795.75
2023-01-17T23:58:19.782Z,98793.13
